Mechanicsville, Virginia
Current Conditions -  °F | °C
As of 9:54 PM on Tuesday 21 Oct 2014 (Local Time) from KOFP Reporting Station
Overcast Overcast  
Wind Chill: 13°   Ceiling: 12000
Heat Index: 13°   Visibility: 10mi
Dew Point: 11°   Wind: 3mph
Humidity: 86%   Direction: 330°NNW
Pressure: 29.92"   Gusts: NA
Location:  37.61°N, 77.38°W
Report Text: KOFP 220154Z AUTO 33003KT 10SM OVC120 13/11 A2992 RMK AO2 SLP130 T01280106
Loading
Personal Weather Stations






























Interactive Weather Map
Tropical Storm Tracking
New forecast layout! Learn more

10-Day Weather Forecast

Advertisements
Track Severe Weather on mobile